In Rescue
 
Open Full Screen Window  High Contrast Mode
Wind Gusting 00 knots
04
July 25, 2021 9:14 AM EDT
Weather Information
Wind Direction
  310 °
Wind Speed
  04 kt (5 mph)
Wind Gust
  00 kt (0 mph)
Altimeter
29.94 in
Visibility
10 SM
Temperature
23° C
73° F
Dewpoint
23° C
73° F
Humidity
100%
1hr Rain Fall
00.00 in.
24hr Rain Fall
00.00 in.
Sky Condition
Clear
VFR

METAR KIRS 251314Z AUTO 31004KT 10SM CLR 23/23 A2994 RMK AO2 T02290225

FAA Disclaimer: The data displayed is for advisory purposes only and is not to be used for flight planning or operations.